sensor_id;sensor_type;location;lat;lon;timestamp;P1;durP1;ratioP1;P2;durP2;ratioP2
51523;SDS011;37610;51.790;21.590;2022-12-18T00:03:57;48.30;;;19.80;;
51523;SDS011;37610;51.790;21.590;2022-12-18T00:07:59;43.70;;;18.70;;
51523;SDS011;37610;51.790;21.590;2022-12-18T00:12:00;49.00;;;21.80;;
51523;SDS011;37610;51.790;21.590;2022-12-18T00:16:02;50.90;;;23.00;;
51523;SDS011;37610;51.790;21.590;2022-12-18T00:20:05;41.70;;;17.70;;
51523;SDS011;37610;51.790;21.590;2022-12-18T00:24:08;29.80;;;15.20;;
51523;SDS011;37610;51.790;21.590;2022-12-18T00:28:11;36.10;;;16.40;;
51523;SDS011;37610;51.790;21.590;2022-12-18T00:32:12;34.10;;;16.30;;
51523;SDS011;37610;51.790;21.590;2022-12-18T00:36:15;49.70;;;20.80;;
51523;SDS011;37610;51.790;21.590;2022-12-18T00:40:19;43.00;;;18.00;;
51523;SDS011;37610;51.790;21.590;2022-12-18T00:44:20;36.40;;;17.50;;
51523;SDS011;37610;51.790;21.590;2022-12-18T00:48:22;32.70;;;15.70;;
51523;SDS011;37610;51.790;21.590;2022-12-18T00:52:23;29.40;;;14.90;;
51523;SDS011;37610;51.790;21.590;2022-12-18T00:56:25;36.80;;;17.40;;
51523;SDS011;37610;51.790;21.590;2022-12-18T01:00:26;41.90;;;19.80;;
51523;SDS011;37610;51.790;21.590;2022-12-18T01:04:30;39.10;;;20.60;;
51523;SDS011;37610;51.790;21.590;2022-12-18T01:08:33;37.70;;;17.30;;
51523;SDS011;37610;51.790;21.590;2022-12-18T01:12:35;40.50;;;18.50;;
51523;SDS011;37610;51.790;21.590;2022-12-18T01:16:36;35.60;;;17.90;;
51523;SDS011;37610;51.790;21.590;2022-12-18T01:20:38;35.50;;;18.20;;
51523;SDS011;37610;51.790;21.590;2022-12-18T01:24:39;32.50;;;15.70;;
51523;SDS011;37610;51.790;21.590;2022-12-18T01:28:41;38.90;;;18.20;;
51523;SDS011;37610;51.790;21.590;2022-12-18T01:32:44;42.00;;;19.20;;
51523;SDS011;37610;51.790;21.590;2022-12-18T01:36:46;37.70;;;17.70;;
51523;SDS011;37610;51.790;21.590;2022-12-18T01:40:47;31.00;;;14.30;;
51523;SDS011;37610;51.790;21.590;2022-12-18T01:48:55;36.10;;;16.80;;
51523;SDS011;37610;51.790;21.590;2022-12-18T01:57:03;44.20;;;16.50;;
51523;SDS011;37610;51.790;21.590;2022-12-18T02:01:04;37.20;;;18.20;;
51523;SDS011;37610;51.790;21.590;2022-12-18T02:05:06;32.80;;;14.70;;
51523;SDS011;37610;51.790;21.590;2022-12-18T02:09:13;34.00;;;16.90;;
51523;SDS011;37610;51.790;21.590;2022-12-18T02:17:48;40.80;;;21.90;;
51523;SDS011;37610;51.790;21.590;2022-12-18T02:30:28;32.80;;;17.10;;
51523;SDS011;37610;51.790;21.590;2022-12-18T02:34:34;37.00;;;17.30;;
51523;SDS011;37610;51.790;21.590;2022-12-18T02:38:39;44.00;;;20.50;;
51523;SDS011;37610;51.790;21.590;2022-12-18T02:42:40;35.20;;;17.00;;
51523;SDS011;37610;51.790;21.590;2022-12-18T02:46:43;34.00;;;18.30;;
51523;SDS011;37610;51.790;21.590;2022-12-18T02:50:51;44.60;;;19.50;;
51523;SDS011;37610;51.790;21.590;2022-12-18T02:59:40;39.60;;;18.50;;
51523;SDS011;37610;51.790;21.590;2022-12-18T03:03:51;37.70;;;18.30;;
51523;SDS011;37610;51.790;21.590;2022-12-18T03:08:03;35.70;;;17.40;;
51523;SDS011;37610;51.790;21.590;2022-12-18T03:12:14;38.70;;;18.80;;
51523;SDS011;37610;51.790;21.590;2022-12-18T03:16:24;35.40;;;18.50;;
51523;SDS011;37610;51.790;21.590;2022-12-18T03:20:29;43.60;;;22.10;;
51523;SDS011;37610;51.790;21.590;2022-12-18T03:24:34;40.50;;;16.90;;
51523;SDS011;37610;51.790;21.590;2022-12-18T03:28:58;48.40;;;21.10;;
51523;SDS011;37610;51.790;21.590;2022-12-18T03:33:18;34.60;;;15.70;;
51523;SDS011;37610;51.790;21.590;2022-12-18T03:37:25;31.40;;;14.10;;
51523;SDS011;37610;51.790;21.590;2022-12-18T03:50:25;39.90;;;18.90;;
51523;SDS011;37610;51.790;21.590;2022-12-18T03:54:33;40.80;;;18.90;;
51523;SDS011;37610;51.790;21.590;2022-12-18T03:58:37;41.40;;;17.70;;
51523;SDS011;37610;51.790;21.590;2022-12-18T04:02:42;44.20;;;19.80;;
51523;SDS011;37610;51.790;21.590;2022-12-18T04:06:51;36.10;;;16.90;;
51523;SDS011;37610;51.790;21.590;2022-12-18T04:10:54;33.60;;;17.20;;
51523;SDS011;37610;51.790;21.590;2022-12-18T04:14:55;37.30;;;17.10;;
51523;SDS011;37610;51.790;21.590;2022-12-18T04:18:57;34.90;;;17.20;;
51523;SDS011;37610;51.790;21.590;2022-12-18T04:22:58;35.50;;;17.10;;
51523;SDS011;37610;51.790;21.590;2022-12-18T04:27:00;38.50;;;19.80;;
51523;SDS011;37610;51.790;21.590;2022-12-18T04:31:01;50.10;;;19.60;;
51523;SDS011;37610;51.790;21.590;2022-12-18T04:35:03;37.30;;;17.80;;
51523;SDS011;37610;51.790;21.590;2022-12-18T04:39:07;34.90;;;16.60;;
51523;SDS011;37610;51.790;21.590;2022-12-18T04:43:09;36.50;;;17.80;;
51523;SDS011;37610;51.790;21.590;2022-12-18T04:47:11;36.90;;;17.60;;
51523;SDS011;37610;51.790;21.590;2022-12-18T04:51:12;41.40;;;19.30;;
51523;SDS011;37610;51.790;21.590;2022-12-18T04:55:14;47.20;;;21.50;;
51523;SDS011;37610;51.790;21.590;2022-12-18T04:59:16;46.10;;;20.00;;
51523;SDS011;37610;51.790;21.590;2022-12-18T05:03:17;43.20;;;18.00;;
51523;SDS011;37610;51.790;21.590;2022-12-18T05:07:19;29.20;;;13.90;;
51523;SDS011;37610;51.790;21.590;2022-12-18T05:11:20;42.80;;;17.80;;
51523;SDS011;37610;51.790;21.590;2022-12-18T05:15:22;36.80;;;17.00;;
51523;SDS011;37610;51.790;21.590;2022-12-18T05:19:24;37.10;;;17.90;;
51523;SDS011;37610;51.790;21.590;2022-12-18T05:23:25;37.80;;;16.50;;
51523;SDS011;37610;51.790;21.590;2022-12-18T05:27:27;33.90;;;15.80;;
51523;SDS011;37610;51.790;21.590;2022-12-18T05:31:29;48.00;;;20.10;;
51523;SDS011;37610;51.790;21.590;2022-12-18T05:35:30;48.20;;;21.60;;
51523;SDS011;37610;51.790;21.590;2022-12-18T05:39:32;36.20;;;16.40;;
51523;SDS011;37610;51.790;21.590;2022-12-18T05:43:35;40.20;;;16.80;;
51523;SDS011;37610;51.790;21.590;2022-12-18T05:47:37;39.30;;;18.60;;
51523;SDS011;37610;51.790;21.590;2022-12-18T05:51:39;38.60;;;18.30;;
51523;SDS011;37610;51.790;21.590;2022-12-18T05:55:41;44.40;;;19.30;;
51523;SDS011;37610;51.790;21.590;2022-12-18T05:59:44;44.10;;;18.40;;
51523;SDS011;37610;51.790;21.590;2022-12-18T06:03:45;43.00;;;18.80;;
51523;SDS011;37610;51.790;21.590;2022-12-18T06:07:47;39.50;;;17.40;;
51523;SDS011;37610;51.790;21.590;2022-12-18T06:11:49;41.50;;;17.60;;
51523;SDS011;37610;51.790;21.590;2022-12-18T06:15:53;43.50;;;19.40;;
51523;SDS011;37610;51.790;21.590;2022-12-18T06:19:54;54.60;;;20.60;;
51523;SDS011;37610;51.790;21.590;2022-12-18T06:23:56;39.50;;;18.40;;
51523;SDS011;37610;51.790;21.590;2022-12-18T06:27:57;41.10;;;18.00;;
51523;SDS011;37610;51.790;21.590;2022-12-18T06:31:59;34.20;;;15.10;;
51523;SDS011;37610;51.790;21.590;2022-12-18T06:36:05;41.80;;;18.90;;
51523;SDS011;37610;51.790;21.590;2022-12-18T06:40:08;35.10;;;15.90;;
51523;SDS011;37610;51.790;21.590;2022-12-18T06:44:10;43.50;;;19.10;;
51523;SDS011;37610;51.790;21.590;2022-12-18T06:48:12;37.10;;;15.60;;
51523;SDS011;37610;51.790;21.590;2022-12-18T06:52:13;34.50;;;15.00;;
51523;SDS011;37610;51.790;21.590;2022-12-18T06:56:15;35.00;;;16.30;;
51523;SDS011;37610;51.790;21.590;2022-12-18T07:00:17;30.60;;;14.70;;
51523;SDS011;37610;51.790;21.590;2022-12-18T07:04:19;41.30;;;18.10;;
51523;SDS011;37610;51.790;21.590;2022-12-18T07:08:20;39.30;;;18.20;;
51523;SDS011;37610;51.790;21.590;2022-12-18T07:12:22;35.80;;;16.50;;
51523;SDS011;37610;51.790;21.590;2022-12-18T07:16:24;32.60;;;14.90;;
51523;SDS011;37610;51.790;21.590;2022-12-18T07:20:25;36.00;;;16.50;;
51523;SDS011;37610;51.790;21.590;2022-12-18T07:24:27;41.30;;;18.00;;
51523;SDS011;37610;51.790;21.590;2022-12-18T07:28:29;35.00;;;15.80;;
51523;SDS011;37610;51.790;21.590;2022-12-18T07:32:31;34.00;;;14.70;;
51523;SDS011;37610;51.790;21.590;2022-12-18T07:36:32;34.70;;;15.60;;
51523;SDS011;37610;51.790;21.590;2022-12-18T07:40:34;33.80;;;14.20;;
51523;SDS011;37610;51.790;21.590;2022-12-18T07:44:35;37.10;;;15.90;;
51523;SDS011;37610;51.790;21.590;2022-12-18T07:48:37;32.10;;;16.00;;
51523;SDS011;37610;51.790;21.590;2022-12-18T07:52:39;30.90;;;15.40;;
51523;SDS011;37610;51.790;21.590;2022-12-18T07:56:40;40.00;;;18.30;;
51523;SDS011;37610;51.790;21.590;2022-12-18T08:00:42;32.10;;;16.10;;
51523;SDS011;37610;51.790;21.590;2022-12-18T08:04:43;26.60;;;13.80;;
51523;SDS011;37610;51.790;21.590;2022-12-18T08:08:45;36.60;;;18.20;;
51523;SDS011;37610;51.790;21.590;2022-12-18T08:12:50;30.90;;;14.30;;
51523;SDS011;37610;51.790;21.590;2022-12-18T08:16:52;35.00;;;16.50;;
51523;SDS011;37610;51.790;21.590;2022-12-18T08:20:54;33.50;;;17.20;;
51523;SDS011;37610;51.790;21.590;2022-12-18T08:24:56;29.10;;;14.10;;
51523;SDS011;37610;51.790;21.590;2022-12-18T08:28:58;26.10;;;12.90;;
51523;SDS011;37610;51.790;21.590;2022-12-18T08:33:00;27.70;;;13.20;;
51523;SDS011;37610;51.790;21.590;2022-12-18T08:37:02;33.40;;;14.70;;
51523;SDS011;37610;51.790;21.590;2022-12-18T08:41:07;43.70;;;19.50;;
51523;SDS011;37610;51.790;21.590;2022-12-18T08:45:10;30.40;;;13.80;;
51523;SDS011;37610;51.790;21.590;2022-12-18T08:49:12;25.10;;;11.50;;
51523;SDS011;37610;51.790;21.590;2022-12-18T08:53:13;31.10;;;13.30;;
51523;SDS011;37610;51.790;21.590;2022-12-18T08:57:15;23.80;;;12.10;;
51523;SDS011;37610;51.790;21.590;2022-12-18T09:01:17;20.90;;;10.90;;
51523;SDS011;37610;51.790;21.590;2022-12-18T09:05:18;31.80;;;15.90;;
51523;SDS011;37610;51.790;21.590;2022-12-18T09:09:20;46.50;;;20.70;;
51523;SDS011;37610;51.790;21.590;2022-12-18T09:13:22;32.50;;;16.10;;
51523;SDS011;37610;51.790;21.590;2022-12-18T09:17:24;37.30;;;17.40;;
51523;SDS011;37610;51.790;21.590;2022-12-18T09:21:26;32.60;;;14.20;;
51523;SDS011;37610;51.790;21.590;2022-12-18T09:25:30;29.60;;;14.10;;
51523;SDS011;37610;51.790;21.590;2022-12-18T09:29:34;33.20;;;14.90;;
51523;SDS011;37610;51.790;21.590;2022-12-18T09:33:35;31.60;;;15.50;;
51523;SDS011;37610;51.790;21.590;2022-12-18T09:37:38;39.30;;;15.20;;
51523;SDS011;37610;51.790;21.590;2022-12-18T09:45:58;32.30;;;14.40;;
51523;SDS011;37610;51.790;21.590;2022-12-18T09:50:13;27.60;;;14.10;;
51523;SDS011;37610;51.790;21.590;2022-12-18T09:54:41;33.40;;;15.50;;
51523;SDS011;37610;51.790;21.590;2022-12-18T09:58:47;30.10;;;13.00;;
51523;SDS011;37610;51.790;21.590;2022-12-18T10:02:59;34.10;;;16.30;;
51523;SDS011;37610;51.790;21.590;2022-12-18T10:07:10;31.00;;;14.20;;
51523;SDS011;37610;51.790;21.590;2022-12-18T10:11:34;32.10;;;15.10;;
51523;SDS011;37610;51.790;21.590;2022-12-18T10:15:48;33.70;;;15.40;;
51523;SDS011;37610;51.790;21.590;2022-12-18T10:24:39;30.10;;;14.00;;
51523;SDS011;37610;51.790;21.590;2022-12-18T10:28:49;30.20;;;13.30;;
51523;SDS011;37610;51.790;21.590;2022-12-18T10:32:52;36.70;;;15.20;;
51523;SDS011;37610;51.790;21.590;2022-12-18T10:36:55;37.80;;;16.60;;
51523;SDS011;37610;51.790;21.590;2022-12-18T10:45:02;35.90;;;14.90;;
51523;SDS011;37610;51.790;21.590;2022-12-18T10:49:19;32.30;;;15.50;;
51523;SDS011;37610;51.790;21.590;2022-12-18T10:53:25;41.90;;;17.50;;
51523;SDS011;37610;51.790;21.590;2022-12-18T10:57:29;42.20;;;19.40;;
51523;SDS011;37610;51.790;21.590;2022-12-18T11:06:06;46.50;;;18.50;;
51523;SDS011;37610;51.790;21.590;2022-12-18T11:10:16;46.00;;;18.70;;
51523;SDS011;37610;51.790;21.590;2022-12-18T11:14:21;40.70;;;16.70;;
51523;SDS011;37610;51.790;21.590;2022-12-18T11:18:30;40.90;;;17.70;;
51523;SDS011;37610;51.790;21.590;2022-12-18T11:22:35;53.20;;;23.20;;
51523;SDS011;37610;51.790;21.590;2022-12-18T11:26:39;43.60;;;19.10;;
51523;SDS011;37610;51.790;21.590;2022-12-18T11:30:44;39.00;;;16.10;;
51523;SDS011;37610;51.790;21.590;2022-12-18T11:34:46;42.40;;;18.80;;
51523;SDS011;37610;51.790;21.590;2022-12-18T11:38:53;44.60;;;19.20;;
51523;SDS011;37610;51.790;21.590;2022-12-18T11:43:02;33.00;;;15.20;;
51523;SDS011;37610;51.790;21.590;2022-12-18T11:47:09;36.50;;;17.10;;
51523;SDS011;37610;51.790;21.590;2022-12-18T11:51:23;35.60;;;16.90;;
51523;SDS011;37610;51.790;21.590;2022-12-18T12:00:18;64.20;;;25.30;;
51523;SDS011;37610;51.790;21.590;2022-12-18T12:17:40;37.30;;;16.90;;
51523;SDS011;37610;51.790;21.590;2022-12-18T12:21:59;63.60;;;24.60;;
51523;SDS011;37610;51.790;21.590;2022-12-18T12:26:18;42.50;;;17.70;;
51523;SDS011;37610;51.790;21.590;2022-12-18T12:39:04;30.90;;;12.90;;
51523;SDS011;37610;51.790;21.590;2022-12-18T12:47:29;49.40;;;21.10;;
51523;SDS011;37610;51.790;21.590;2022-12-18T12:51:37;41.70;;;18.60;;
51523;SDS011;37610;51.790;21.590;2022-12-18T12:55:41;46.30;;;20.00;;
51523;SDS011;37610;51.790;21.590;2022-12-18T13:08:21;39.40;;;17.00;;
51523;SDS011;37610;51.790;21.590;2022-12-18T13:12:25;57.50;;;26.80;;
51523;SDS011;37610;51.790;21.590;2022-12-18T13:16:50;44.70;;;19.70;;
51523;SDS011;37610;51.790;21.590;2022-12-18T13:24:59;38.10;;;16.30;;
51523;SDS011;37610;51.790;21.590;2022-12-18T13:29:01;42.70;;;18.30;;
51523;SDS011;37610;51.790;21.590;2022-12-18T13:41:33;38.10;;;15.80;;
51523;SDS011;37610;51.790;21.590;2022-12-18T13:45:35;42.50;;;17.80;;
51523;SDS011;37610;51.790;21.590;2022-12-18T13:49:43;43.40;;;17.50;;
51523;SDS011;37610;51.790;21.590;2022-12-18T13:58:04;53.90;;;22.20;;
51523;SDS011;37610;51.790;21.590;2022-12-18T14:02:12;57.60;;;23.60;;
51523;SDS011;37610;51.790;21.590;2022-12-18T14:06:16;60.70;;;22.90;;
51523;SDS011;37610;51.790;21.590;2022-12-18T14:10:18;50.80;;;20.60;;
51523;SDS011;37610;51.790;21.590;2022-12-18T14:14:20;65.60;;;26.60;;
51523;SDS011;37610;51.790;21.590;2022-12-18T14:18:23;190.70;;;55.40;;
51523;SDS011;37610;51.790;21.590;2022-12-18T14:22:26;199.60;;;69.20;;
51523;SDS011;37610;51.790;21.590;2022-12-18T14:26:31;145.60;;;53.60;;
51523;SDS011;37610;51.790;21.590;2022-12-18T14:34:40;53.70;;;22.40;;
51523;SDS011;37610;51.790;21.590;2022-12-18T14:38:41;48.50;;;18.60;;
51523;SDS011;37610;51.790;21.590;2022-12-18T14:42:43;50.60;;;19.30;;
51523;SDS011;37610;51.790;21.590;2022-12-18T14:46:45;98.60;;;33.50;;
51523;SDS011;37610;51.790;21.590;2022-12-18T14:50:55;45.60;;;17.50;;
51523;SDS011;37610;51.790;21.590;2022-12-18T14:54:59;43.90;;;19.30;;
51523;SDS011;37610;51.790;21.590;2022-12-18T14:59:01;51.40;;;20.30;;
51523;SDS011;37610;51.790;21.590;2022-12-18T15:03:17;48.30;;;18.50;;
51523;SDS011;37610;51.790;21.590;2022-12-18T15:07:22;38.30;;;15.40;;
51523;SDS011;37610;51.790;21.590;2022-12-18T15:11:35;45.00;;;19.20;;
51523;SDS011;37610;51.790;21.590;2022-12-18T15:15:46;86.40;;;30.00;;
51523;SDS011;37610;51.790;21.590;2022-12-18T15:19:50;109.20;;;41.60;;
51523;SDS011;37610;51.790;21.590;2022-12-18T15:23:54;74.10;;;33.20;;
51523;SDS011;37610;51.790;21.590;2022-12-18T15:27:56;275.00;;;95.70;;
51523;SDS011;37610;51.790;21.590;2022-12-18T15:32:02;97.30;;;35.40;;
51523;SDS011;37610;51.790;21.590;2022-12-18T15:36:09;52.50;;;22.90;;
51523;SDS011;37610;51.790;21.590;2022-12-18T15:40:18;75.40;;;26.60;;
51523;SDS011;37610;51.790;21.590;2022-12-18T15:44:24;96.10;;;36.80;;
51523;SDS011;37610;51.790;21.590;2022-12-18T15:48:26;153.10;;;59.10;;
51523;SDS011;37610;51.790;21.590;2022-12-18T15:52:28;241.10;;;91.00;;
51523;SDS011;37610;51.790;21.590;2022-12-18T15:56:30;129.70;;;47.30;;
51523;SDS011;37610;51.790;21.590;2022-12-18T16:00:50;170.20;;;66.50;;
51523;SDS011;37610;51.790;21.590;2022-12-18T16:04:52;114.20;;;45.10;;
51523;SDS011;37610;51.790;21.590;2022-12-18T16:08:55;119.00;;;46.90;;
51523;SDS011;37610;51.790;21.590;2022-12-18T16:12:56;108.20;;;37.90;;
51523;SDS011;37610;51.790;21.590;2022-12-18T16:17:02;96.20;;;30.90;;
51523;SDS011;37610;51.790;21.590;2022-12-18T16:21:07;65.80;;;27.70;;
51523;SDS011;37610;51.790;21.590;2022-12-18T16:25:13;126.50;;;45.10;;
51523;SDS011;37610;51.790;21.590;2022-12-18T16:29:21;123.70;;;40.60;;
51523;SDS011;37610;51.790;21.590;2022-12-18T16:33:28;156.30;;;56.10;;
51523;SDS011;37610;51.790;21.590;2022-12-18T16:37:29;79.00;;;34.10;;
51523;SDS011;37610;51.790;21.590;2022-12-18T16:41:31;253.30;;;67.60;;
51523;SDS011;37610;51.790;21.590;2022-12-18T16:45:33;99.90;;;34.10;;
51523;SDS011;37610;51.790;21.590;2022-12-18T16:49:34;135.10;;;41.70;;
51523;SDS011;37610;51.790;21.590;2022-12-18T16:53:36;201.90;;;66.60;;
51523;SDS011;37610;51.790;21.590;2022-12-18T16:57:37;321.90;;;100.00;;
51523;SDS011;37610;51.790;21.590;2022-12-18T17:01:39;135.30;;;41.90;;
51523;SDS011;37610;51.790;21.590;2022-12-18T17:05:41;178.50;;;56.00;;
51523;SDS011;37610;51.790;21.590;2022-12-18T17:09:43;153.80;;;49.00;;
51523;SDS011;37610;51.790;21.590;2022-12-18T17:13:44;230.00;;;59.60;;
51523;SDS011;37610;51.790;21.590;2022-12-18T17:17:46;269.10;;;73.90;;
51523;SDS011;37610;51.790;21.590;2022-12-18T17:21:48;233.50;;;65.10;;
51523;SDS011;37610;51.790;21.590;2022-12-18T17:25:53;182.50;;;55.30;;
51523;SDS011;37610;51.790;21.590;2022-12-18T17:29:56;101.60;;;32.70;;
51523;SDS011;37610;51.790;21.590;2022-12-18T17:33:59;217.30;;;67.70;;
51523;SDS011;37610;51.790;21.590;2022-12-18T17:38:02;165.90;;;55.50;;
51523;SDS011;37610;51.790;21.590;2022-12-18T17:42:03;127.20;;;45.20;;
51523;SDS011;37610;51.790;21.590;2022-12-18T17:46:05;106.40;;;39.20;;
51523;SDS011;37610;51.790;21.590;2022-12-18T17:50:07;42.60;;;18.00;;
51523;SDS011;37610;51.790;21.590;2022-12-18T17:54:10;59.00;;;25.00;;
51523;SDS011;37610;51.790;21.590;2022-12-18T17:58:11;69.00;;;26.10;;
51523;SDS011;37610;51.790;21.590;2022-12-18T18:02:13;87.80;;;34.30;;
51523;SDS011;37610;51.790;21.590;2022-12-18T18:06:14;117.50;;;34.90;;
51523;SDS011;37610;51.790;21.590;2022-12-18T18:10:16;106.60;;;35.20;;
51523;SDS011;37610;51.790;21.590;2022-12-18T18:14:18;84.40;;;27.70;;
51523;SDS011;37610;51.790;21.590;2022-12-18T18:18:20;74.30;;;28.50;;
51523;SDS011;37610;51.790;21.590;2022-12-18T18:22:22;94.10;;;35.40;;
51523;SDS011;37610;51.790;21.590;2022-12-18T18:26:23;79.20;;;29.10;;
51523;SDS011;37610;51.790;21.590;2022-12-18T18:30:25;86.60;;;28.60;;
51523;SDS011;37610;51.790;21.590;2022-12-18T18:34:27;58.70;;;25.90;;
51523;SDS011;37610;51.790;21.590;2022-12-18T18:38:30;59.40;;;24.80;;
51523;SDS011;37610;51.790;21.590;2022-12-18T18:42:32;60.90;;;24.20;;
51523;SDS011;37610;51.790;21.590;2022-12-18T18:46:33;45.40;;;22.50;;
51523;SDS011;37610;51.790;21.590;2022-12-18T18:50:35;91.10;;;34.50;;
51523;SDS011;37610;51.790;21.590;2022-12-18T18:54:36;77.10;;;29.00;;
51523;SDS011;37610;51.790;21.590;2022-12-18T18:58:38;71.70;;;32.60;;
51523;SDS011;37610;51.790;21.590;2022-12-18T19:02:40;63.90;;;27.50;;
51523;SDS011;37610;51.790;21.590;2022-12-18T19:06:44;108.30;;;40.60;;
51523;SDS011;37610;51.790;21.590;2022-12-18T19:10:51;90.00;;;33.60;;
51523;SDS011;37610;51.790;21.590;2022-12-18T19:14:54;97.70;;;33.20;;
51523;SDS011;37610;51.790;21.590;2022-12-18T19:18:55;67.90;;;24.70;;
51523;SDS011;37610;51.790;21.590;2022-12-18T19:22:57;53.80;;;24.40;;
51523;SDS011;37610;51.790;21.590;2022-12-18T19:26:59;60.30;;;25.90;;
51523;SDS011;37610;51.790;21.590;2022-12-18T19:31:01;128.30;;;40.40;;
51523;SDS011;37610;51.790;21.590;2022-12-18T19:35:05;145.10;;;43.60;;
51523;SDS011;37610;51.790;21.590;2022-12-18T19:39:08;125.70;;;43.70;;
51523;SDS011;37610;51.790;21.590;2022-12-18T19:43:15;209.50;;;72.00;;
51523;SDS011;37610;51.790;21.590;2022-12-18T19:47:16;205.50;;;66.70;;
51523;SDS011;37610;51.790;21.590;2022-12-18T19:51:22;74.70;;;32.90;;
51523;SDS011;37610;51.790;21.590;2022-12-18T19:55:25;94.00;;;35.30;;
51523;SDS011;37610;51.790;21.590;2022-12-18T19:59:27;98.60;;;36.80;;
51523;SDS011;37610;51.790;21.590;2022-12-18T20:03:28;90.20;;;30.70;;
51523;SDS011;37610;51.790;21.590;2022-12-18T20:07:30;102.30;;;31.10;;
51523;SDS011;37610;51.790;21.590;2022-12-18T20:11:33;73.40;;;28.20;;
51523;SDS011;37610;51.790;21.590;2022-12-18T20:15:35;66.50;;;25.80;;
51523;SDS011;37610;51.790;21.590;2022-12-18T20:19:37;61.70;;;24.00;;
51523;SDS011;37610;51.790;21.590;2022-12-18T20:23:38;140.00;;;41.90;;
51523;SDS011;37610;51.790;21.590;2022-12-18T20:27:40;91.40;;;27.50;;
51523;SDS011;37610;51.790;21.590;2022-12-18T20:31:41;77.00;;;24.80;;
51523;SDS011;37610;51.790;21.590;2022-12-18T20:35:43;81.40;;;25.60;;
51523;SDS011;37610;51.790;21.590;2022-12-18T20:39:44;96.40;;;29.20;;
51523;SDS011;37610;51.790;21.590;2022-12-18T20:43:46;69.90;;;25.30;;
51523;SDS011;37610;51.790;21.590;2022-12-18T20:47:48;70.30;;;23.30;;
51523;SDS011;37610;51.790;21.590;2022-12-18T20:51:51;73.80;;;24.70;;
51523;SDS011;37610;51.790;21.590;2022-12-18T20:55:54;40.40;;;16.90;;
51523;SDS011;37610;51.790;21.590;2022-12-18T20:59:56;97.10;;;29.10;;
51523;SDS011;37610;51.790;21.590;2022-12-18T21:03:57;78.00;;;28.50;;
51523;SDS011;37610;51.790;21.590;2022-12-18T21:07:59;63.90;;;23.40;;
51523;SDS011;37610;51.790;21.590;2022-12-18T21:12:00;56.90;;;20.70;;
51523;SDS011;37610;51.790;21.590;2022-12-18T21:16:21;51.00;;;18.10;;
51523;SDS011;37610;51.790;21.590;2022-12-18T21:20:22;48.80;;;18.20;;
51523;SDS011;37610;51.790;21.590;2022-12-18T21:24:24;55.30;;;17.00;;
51523;SDS011;37610;51.790;21.590;2022-12-18T21:28:25;57.50;;;20.90;;
51523;SDS011;37610;51.790;21.590;2022-12-18T21:32:27;61.00;;;20.10;;
51523;SDS011;37610;51.790;21.590;2022-12-18T21:36:30;40.30;;;16.70;;
51523;SDS011;37610;51.790;21.590;2022-12-18T21:40:37;39.00;;;13.20;;
51523;SDS011;37610;51.790;21.590;2022-12-18T21:44:39;40.40;;;15.10;;
51523;SDS011;37610;51.790;21.590;2022-12-18T21:48:40;45.90;;;16.50;;
51523;SDS011;37610;51.790;21.590;2022-12-18T21:52:43;49.00;;;15.60;;
51523;SDS011;37610;51.790;21.590;2022-12-18T21:56:51;57.30;;;19.90;;
51523;SDS011;37610;51.790;21.590;2022-12-18T22:00:53;42.60;;;14.10;;
51523;SDS011;37610;51.790;21.590;2022-12-18T22:04:55;41.60;;;15.90;;
51523;SDS011;37610;51.790;21.590;2022-12-18T22:08:57;34.40;;;12.70;;
51523;SDS011;37610;51.790;21.590;2022-12-18T22:12:58;32.80;;;12.80;;
51523;SDS011;37610;51.790;21.590;2022-12-18T22:17:00;45.30;;;15.60;;
51523;SDS011;37610;51.790;21.590;2022-12-18T22:21:03;48.00;;;16.40;;
51523;SDS011;37610;51.790;21.590;2022-12-18T22:25:06;28.20;;;12.90;;
51523;SDS011;37610;51.790;21.590;2022-12-18T22:29:10;21.70;;;10.30;;
51523;SDS011;37610;51.790;21.590;2022-12-18T22:33:33;32.20;;;13.20;;
51523;SDS011;37610;51.790;21.590;2022-12-18T22:37:35;35.80;;;14.00;;
51523;SDS011;37610;51.790;21.590;2022-12-18T22:41:37;35.30;;;14.00;;
51523;SDS011;37610;51.790;21.590;2022-12-18T22:45:38;32.60;;;14.60;;
51523;SDS011;37610;51.790;21.590;2022-12-18T22:49:40;38.60;;;16.00;;
51523;SDS011;37610;51.790;21.590;2022-12-18T22:53:42;39.50;;;14.80;;
51523;SDS011;37610;51.790;21.590;2022-12-18T22:57:44;56.20;;;17.50;;
51523;SDS011;37610;51.790;21.590;2022-12-18T23:01:46;54.60;;;20.00;;
51523;SDS011;37610;51.790;21.590;2022-12-18T23:05:49;45.30;;;14.10;;
51523;SDS011;37610;51.790;21.590;2022-12-18T23:09:50;40.60;;;14.80;;
51523;SDS011;37610;51.790;21.590;2022-12-18T23:13:52;32.60;;;12.60;;
51523;SDS011;37610;51.790;21.590;2022-12-18T23:17:57;25.70;;;11.10;;
51523;SDS011;37610;51.790;21.590;2022-12-18T23:21:59;59.60;;;18.70;;
51523;SDS011;37610;51.790;21.590;2022-12-18T23:26:02;57.50;;;16.40;;
51523;SDS011;37610;51.790;21.590;2022-12-18T23:30:06;45.90;;;14.70;;
51523;SDS011;37610;51.790;21.590;2022-12-18T23:34:09;32.70;;;12.30;;
51523;SDS011;37610;51.790;21.590;2022-12-18T23:38:13;31.00;;;10.60;;
51523;SDS011;37610;51.790;21.590;2022-12-18T23:42:15;31.50;;;13.30;;
51523;SDS011;37610;51.790;21.590;2022-12-18T23:50:19;46.80;;;15.40;;
51523;SDS011;37610;51.790;21.590;2022-12-18T23:54:21;26.10;;;10.40;;
51523;SDS011;37610;51.790;21.590;2022-12-18T23:58:22;27.00;;;11.20;;
